Time;durP1;ratioP1;P1;durP2;ratioP2;P2;SDS_P1;SDS_P2;PMS_P1;PMS_P2;Temp;Humidity;BMP_temperature;BMP_pressure;BME280_temperature;BME280_humidity;BME280_pressure;Samples;Min_cycle;Max_cycle;Signal;HPM_P1;HPM_P2
2023/01/15 00:00:02;;;;;;;;;;;;;;;1.95;100.00;100061.50;5065417;28;19920;-78
2023/01/15 00:02:30;;;;;;;;;;;;;;;1.94;100.00;100067.66;5063915;28;19927;-78
2023/01/15 00:04:56;;;;;;;;;;;;;;;1.97;100.00;100062.28;5064201;28;19916;-78
2023/01/15 00:07:21;;;;;;;;;;;;;;;2.00;100.00;100058.69;5062573;28;19963;-78
2023/01/15 00:09:48;;;;;;;;;;;;;;;2.03;100.00;100058.53;5065610;28;19928;-79
2023/01/15 00:12:13;;;;;;;;;;;;;;;1.83;100.00;100051.69;5059014;28;19920;-76
2023/01/15 00:14:39;;;;;;;;;;;;;;;1.72;100.00;100042.75;5066418;28;19970;-78
2023/01/15 00:17:04;;;;;;;;;;;;;;;1.75;100.00;100043.44;5063849;28;19949;-80
2023/01/15 00:19:30;;;;;;;;;;;;;;;1.77;100.00;100046.81;5066543;28;19920;-78
2023/01/15 00:21:57;;;;;;;;;;;;;;;1.81;100.00;100045.75;5065618;28;19920;-78
2023/01/15 00:29:53;;;;;;;;;;;;;;;1.94;100.00;100044.22;5063068;28;19920;-80
2023/01/15 00:32:18;;;;;;;;;;;;;;;1.96;100.00;100050.19;5060061;28;19921;-78
2023/01/15 00:34:44;;;;;;;;;;;;;;;1.98;100.00;100040.53;5061988;28;19931;-79
2023/01/15 00:37:09;;;;;;;;;;;;;;;1.90;100.00;100042.69;5063512;28;19952;-79
2023/01/15 00:39:34;;;;;;;;;;;;;;;1.89;100.00;100046.19;5064529;28;19920;-78
2023/01/15 00:42:00;;;;;;;;;;;;;;;1.89;100.00;100046.19;5059696;28;19939;-78
2023/01/15 00:44:26;;;;;;;;;;;;;;;1.90;100.00;100047.03;5063663;28;19920;-79
2023/01/15 00:46:51;;;;;;;;;;;;;;;1.94;100.00;100043.38;5066443;28;19946;-79
2023/01/15 00:49:19;;;;;;;;;;;;;;;1.87;100.00;100037.66;5062263;28;19920;-79
2023/01/15 00:51:44;;;;;;;;;;;;;;;1.84;100.00;100036.94;5046493;28;19935;-79
2023/01/15 00:54:10;;;;;;;;;;;;;;;1.85;100.00;100043.81;5065127;28;19978;-79
2023/01/15 00:56:35;;;;;;;;;;;;;;;1.88;100.00;100044.53;5062410;28;19962;-77
2023/01/15 00:59:05;;;;;;;;;;;;;;;1.91;100.00;100036.56;5062261;28;20471;-79
2023/01/15 01:01:31;;;;;;;;;;;;;;;1.95;100.00;100030.28;5046753;28;20372;-78
2023/01/15 01:03:57;;;;;;;;;;;;;;;1.96;100.00;100037.16;5063228;28;19917;-78
2023/01/15 01:06:22;;;;;;;;;;;;;;;1.98;100.00;100027.53;5074145;28;19930;-79
2023/01/15 01:08:48;;;;;;;;;;;;;;;2.00;100.00;100023.06;5068540;28;20449;-77
2023/01/15 01:11:15;;;;;;;;;;;;;;;2.06;100.00;100033.19;5060948;28;19920;-80
2023/01/15 01:13:41;;;;;;;;;;;;;;;2.11;100.00;100025.16;5062952;28;20469;-80
2023/01/15 01:16:26;;;;;;;;;;;;;;;2.16;100.00;100028.38;5044417;28;20372;-80
2023/01/15 01:18:51;;;;;;;;;;;;;;;2.17;100.00;100024.00;5059862;28;20380;-78
2023/01/15 01:21:17;;;;;;;;;;;;;;;2.10;100.00;100025.22;5058134;28;19931;-79
2023/01/15 01:23:42;;;;;;;;;;;;;;;2.15;100.00;100036.25;5064530;28;19927;-79
2023/01/15 01:26:09;;;;;;;;;;;;;;;2.15;100.00;100025.81;5062176;28;19924;-79
2023/01/15 01:28:34;;;;;;;;;;;;;;;2.17;100.00;100027.44;5047402;28;20647;-80
2023/01/15 01:31:03;;;;;;;;;;;;;;;2.20;100.00;100023.81;5064399;28;19920;-80
2023/01/15 01:33:28;;;;;;;;;;;;;;;2.23;100.00;100018.47;5046544;28;20419;-81
2023/01/15 01:35:53;;;;;;;;;;;;;;;2.24;100.00;100017.56;5063032;28;19941;-78
2023/01/15 01:38:19;;;;;;;;;;;;;;;2.28;100.00;100021.69;5061270;28;19920;-78
2023/01/15 01:40:44;;;;;;;;;;;;;;;2.27;100.00;100009.56;5064230;28;19921;-78
2023/01/15 01:43:29;;;;;;;;;;;;;;;2.29;100.00;100002.53;5058724;28;19931;-78
2023/01/15 01:45:54;;;;;;;;;;;;;;;2.31;100.00;100005.88;5058488;28;19928;-78
2023/01/15 01:48:25;;;;;;;;;;;;;;;2.30;100.00;100004.19;5045667;28;19924;-77
2023/01/15 01:50:53;;;;;;;;;;;;;;;2.28;100.00;100000.84;5045524;28;20392;-78
2023/01/15 01:53:20;;;;;;;;;;;;;;;2.30;100.00;100005.03;5047074;28;20325;-77
2023/01/15 01:55:45;;;;;;;;;;;;;;;2.32;100.00;99997.16;5059663;28;20628;-77
2023/01/15 01:58:12;;;;;;;;;;;;;;;2.32;100.00;100002.38;5041496;28;19924;-78
2023/01/15 02:00:40;;;;;;;;;;;;;;;2.30;100.00;99999.00;5062116;28;19935;-78
2023/01/15 02:03:08;;;;;;;;;;;;;;;2.28;100.00;100003.44;5066137;28;19928;-78
2023/01/15 02:05:39;;;;;;;;;;;;;;;2.27;100.00;100000.00;5065618;28;20395;-77
2023/01/15 02:08:06;;;;;;;;;;;;;;;2.29;100.00;100007.75;5062322;28;19932;-78
2023/01/15 02:10:32;;;;;;;;;;;;;;;2.32;100.00;100002.38;5065541;28;19928;-77
2023/01/15 02:13:06;;;;;;;;;;;;;;;2.35;100.00;99991.81;5064789;28;19924;-79
2023/01/15 02:15:34;;;;;;;;;;;;;;;2.29;100.00;99997.34;5062069;28;19924;-78
2023/01/15 02:18:07;;;;;;;;;;;;;;;2.33;100.00;99988.44;5043796;28;20415;-78
2023/01/15 02:20:36;;;;;;;;;;;;;;;2.31;100.00;99974.63;5067071;28;19944;-77
2023/01/15 02:23:12;;;;;;;;;;;;;;;2.18;100.00;99973.63;5044402;28;19927;-76
2023/01/15 02:25:52;;;;;;;;;;;;;;;2.08;100.00;99967.19;5062870;28;20019;-79
2023/01/15 02:28:18;;;;;;;;;;;;;;;1.95;100.00;99962.59;5059982;28;20495;-78
2023/01/15 02:30:46;;;;;;;;;;;;;;;1.97;100.00;99957.31;5056281;28;19944;-78
2023/01/15 02:33:18;;;;;;;;;;;;;;;2.01;100.00;99951.03;5068143;28;20420;-78
2023/01/15 02:35:46;;;;;;;;;;;;;;;2.06;100.00;99949.88;5058685;28;19953;-78
2023/01/15 02:38:15;;;;;;;;;;;;;;;2.01;100.00;99951.88;5040074;28;19925;-78
2023/01/15 02:40:45;;;;;;;;;;;;;;;1.94;100.00;99945.34;5045735;28;20372;-78
2023/01/15 02:43:12;;;;;;;;;;;;;;;1.96;100.00;99937.44;5043378;28;20295;-78
2023/01/15 02:45:40;;;;;;;;;;;;;;;2.03;100.00;99934.44;5044313;28;20454;-76
2023/01/15 02:48:15;;;;;;;;;;;;;;;2.11;100.00;99915.81;5063566;28;19929;-78
2023/01/15 02:50:47;;;;;;;;;;;;;;;2.19;100.00;99918.84;5064733;28;19990;-78
2023/01/15 02:53:16;;;;;;;;;;;;;;;2.25;100.00;99915.06;5067538;28;20355;-76
2023/01/15 02:55:43;;;;;;;;;;;;;;;2.30;100.00;99915.66;5042009;28;20416;-78
2023/01/15 02:58:13;;;;;;;;;;;;;;;2.32;100.00;99913.81;5040504;28;19972;-77
2023/01/15 03:00:43;;;;;;;;;;;;;;;2.38;100.00;99908.28;5045898;28;19929;-77
2023/01/15 03:03:15;;;;;;;;;;;;;;;2.39;100.00;99899.56;5065134;28;19925;-78
2023/01/15 03:05:57;;;;;;;;;;;;;;;2.44;100.00;99894.94;5048257;28;20026;-80
2023/01/15 03:08:22;;;;;;;;;;;;;;;2.46;100.00;99898.31;5052100;28;19927;-79
2023/01/15 03:10:54;;;;;;;;;;;;;;;2.43;100.00;99895.84;5064953;28;19976;-79
2023/01/15 03:13:24;;;;;;;;;;;;;;;2.41;100.00;99887.31;5068109;28;20292;-79
2023/01/15 03:16:34;;;;;;;;;;;;;;;2.43;100.00;99880.22;5047091;28;19921;-80
2023/01/15 03:19:12;;;;;;;;;;;;;;;2.49;100.00;99877.28;5049114;28;19951;-78
2023/01/15 03:21:43;;;;;;;;;;;;;;;2.49;100.00;99885.09;5066869;28;19978;-79
2023/01/15 03:24:10;;;;;;;;;;;;;;;2.49;100.00;99890.31;5051276;28;19924;-78
2023/01/15 03:26:36;;;;;;;;;;;;;;;2.47;100.00;99881.75;5066377;28;20388;-78
2023/01/15 03:29:02;;;;;;;;;;;;;;;2.51;100.00;99883.25;5066756;28;19928;-79
2023/01/15 03:31:28;;;;;;;;;;;;;;;2.50;100.00;99881.56;5066910;28;19931;-78
2023/01/15 03:33:56;;;;;;;;;;;;;;;2.47;100.00;99881.75;5052401;28;20365;-80
2023/01/15 03:36:22;;;;;;;;;;;;;;;2.49;100.00;99890.31;5050712;28;20004;-79
2023/01/15 03:38:49;;;;;;;;;;;;;;;2.50;100.00;99897.19;5074847;28;19948;-79
2023/01/15 03:41:30;;;;;;;;;;;;;;;2.49;100.00;99885.09;5081289;28;19920;-79
2023/01/15 03:44:02;;;;;;;;;;;;;;;2.49;100.00;99885.09;5078890;28;20457;-79
2023/01/15 03:46:29;;;;;;;;;;;;;;;2.46;100.00;99872.25;5047861;28;19927;-79
2023/01/15 03:48:57;;;;;;;;;;;;;;;2.46;100.00;99874.88;5052425;28;19920;-79
2023/01/15 03:51:27;;;;;;;;;;;;;;;2.43;100.00;99869.81;5067238;28;19921;-78
2023/01/15 03:53:54;;;;;;;;;;;;;;;2.39;100.00;99870.91;5066426;28;20024;-79
2023/01/15 03:56:35;;;;;;;;;;;;;;;2.39;100.00;99852.69;5041595;28;19934;-78
2023/01/15 03:59:06;;;;;;;;;;;;;;;2.36;100.00;99852.81;5046254;28;19925;-77
2023/01/15 04:01:49;;;;;;;;;;;;;;;2.31;100.00;99834.00;5047088;28;20384;-77
2023/01/15 04:04:15;;;;;;;;;;;;;;;2.32;100.00;99839.16;5069104;28;20434;-77
2023/01/15 04:06:42;;;;;;;;;;;;;;;2.39;100.00;99842.25;5068962;28;19921;-78
2023/01/15 04:09:09;;;;;;;;;;;;;;;2.40;100.00;99828.31;5063266;28;20540;-78
2023/01/15 04:11:35;;;;;;;;;;;;;;;2.32;100.00;99825.28;5067844;28;19928;-78
2023/01/15 04:14:04;;;;;;;;;;;;;;;2.25;100.00;99819.56;5063606;28;19976;-77
2023/01/15 04:17:02;;;;;;;;;;;;;;;2.24;100.00;99806.66;5048958;28;19920;-78
2023/01/15 04:19:27;;;;;;;;;;;;;;;2.21;100.00;99796.41;5066895;28;19927;-79
2023/01/15 04:22:02;;;;;;;;;;;;;;;2.21;100.00;99791.19;5042662;28;19944;-78
2023/01/15 04:24:28;;;;;;;;;;;;;;;2.23;100.00;99794.56;5066174;28;20384;-78
2023/01/15 04:26:53;;;;;;;;;;;;;;;2.28;100.00;99792.53;5064811;28;19924;-79
2023/01/15 04:29:19;;;;;;;;;;;;;;;2.29;100.00;99794.22;5065057;28;19920;-78
2023/01/15 04:31:44;;;;;;;;;;;;;;;2.32;100.00;99788.81;5041565;28;19921;-79
2023/01/15 04:34:10;;;;;;;;;;;;;;;2.35;100.00;99793.88;5067650;28;19981;-78
2023/01/15 04:36:35;;;;;;;;;;;;;;;2.29;100.00;99812.44;5065806;28;19928;-78
2023/01/15 04:39:03;;;;;;;;;;;;;;;2.22;100.00;99818.91;5065031;28;19921;-78
2023/01/15 04:44:13;;;;;;;;;;;;;;;2.10;100.00;99814.38;5064426;28;19921;-78
2023/01/15 04:46:43;;;;;;;;;;;;;;;2.06;100.00;99806.72;5065764;28;19935;-76
2023/01/15 04:49:12;;;;;;;;;;;;;;;2.10;100.00;99811.75;5043205;28;19965;-77
2023/01/15 04:51:38;;;;;;;;;;;;;;;1.94;100.00;99807.41;5061894;28;20286;-78
2023/01/15 04:54:05;;;;;;;;;;;;;;;1.91;100.00;99799.75;5064382;28;19925;-77
2023/01/15 04:56:31;;;;;;;;;;;;;;;1.88;100.00;99799.91;5062772;28;19928;-79
2023/01/15 04:58:58;;;;;;;;;;;;;;;1.72;100.00;99793.00;5045316;28;19920;-79
2023/01/15 05:01:24;;;;;;;;;;;;;;;1.42;100.00;99805.84;5064641;28;20284;-77
2023/01/15 05:03:49;;;;;;;;;;;;;;;1.32;100.00;99795.09;5063366;28;19943;-79
2023/01/15 05:06:16;;;;;;;;;;;;;;;1.33;100.00;99775.13;5063284;28;19929;-78
2023/01/15 05:08:42;;;;;;;;;;;;;;;1.37;100.00;99784.44;5058870;28;19921;-78
2023/01/15 05:11:07;;;;;;;;;;;;;;;1.45;100.00;99790.09;5064972;28;19931;-78
2023/01/15 05:13:33;;;;;;;;;;;;;;;1.47;100.00;99783.88;5047362;28;19921;-79
2023/01/15 05:16:07;;;;;;;;;;;;;;;1.53;100.00;99773.16;5065879;28;19928;-77
2023/01/15 05:18:33;;;;;;;;;;;;;;;1.57;100.00;99771.25;5064018;28;20330;-79
2023/01/15 05:20:58;;;;;;;;;;;;;;;1.61;100.00;99775.34;5067550;28;19924;-78
2023/01/15 05:23:24;;;;;;;;;;;;;;;1.65;100.00;99766.47;5044397;28;19983;-78
2023/01/15 05:25:49;;;;;;;;;;;;;;;1.69;100.00;99744.59;5065044;28;19921;-77
2023/01/15 05:28:14;;;;;;;;;;;;;;;1.74;100.00;99732.16;5063677;28;19920;-77
2023/01/15 05:30:40;;;;;;;;;;;;;;;1.77;100.00;99734.59;5061724;28;19929;-78
2023/01/15 05:33:05;;;;;;;;;;;;;;;1.80;100.00;99750.03;5064295;28;19921;-79
2023/01/15 05:35:31;;;;;;;;;;;;;;;1.78;100.00;99754.47;5062208;28;19921;-79
2023/01/15 05:37:56;;;;;;;;;;;;;;;1.75;100.00;99746.84;5069598;28;19920;-79
2023/01/15 05:40:21;;;;;;;;;;;;;;;1.75;100.00;99757.25;5068941;28;19920;-79
2023/01/15 05:42:47;;;;;;;;;;;;;;;1.74;100.00;99760.78;5068021;28;20023;-78
2023/01/15 05:45:12;;;;;;;;;;;;;;;1.71;100.00;99734.91;5067519;28;19935;-78
2023/01/15 05:47:38;;;;;;;;;;;;;;;1.71;100.00;99732.31;5047697;28;19924;-77
2023/01/15 05:50:03;;;;;;;;;;;;;;;1.65;100.00;99741.28;5064322;28;19924;-76
2023/01/15 05:52:29;;;;;;;;;;;;;;;1.65;100.00;99745.66;5049301;28;19921;-77
2023/01/15 05:54:54;;;;;;;;;;;;;;;1.62;100.00;99751.03;5066271;28;19921;-78
2023/01/15 05:57:20;;;;;;;;;;;;;;;1.60;100.00;99752.84;5065477;28;19920;-78
2023/01/15 05:59:46;;;;;;;;;;;;;;;1.47;100.00;99757.06;5072084;28;19955;-78
2023/01/15 06:02:11;;;;;;;;;;;;;;;1.42;100.00;99769.44;5066389;28;19925;-78
2023/01/15 06:04:37;;;;;;;;;;;;;;;1.23;100.00;99754.81;5048174;28;19924;-77
2023/01/15 06:07:02;;;;;;;;;;;;;;;1.33;100.00;99754.31;5065720;28;19924;-78
2023/01/15 06:09:28;;;;;;;;;;;;;;;1.32;100.00;99747.44;5067880;28;19932;-76
2023/01/15 06:11:55;;;;;;;;;;;;;;;1.31;100.00;99756.16;5071237;28;19928;-78
2023/01/15 06:14:20;;;;;;;65.03;40.60;;;;;;;1.23;100.00;99760.03;5073644;28;19916;-78
2023/01/15 06:16:46;;;;;;;61.17;38.45;;;;;;;1.26;100.00;99753.81;5072635;28;20086;-79
2023/01/15 06:19:13;;;;;;;58.97;39.10;;;;;;;1.24;100.00;99756.47;5056672;28;20036;-78
2023/01/15 06:21:39;;;;;;;59.90;38.10;;;;;;;1.10;100.00;99758.13;5069246;28;20021;-77
2023/01/15 06:24:05;;;;;;;61.47;39.08;;;;;;;0.98;100.00;99759.59;5068331;28;20055;-79
2023/01/15 06:26:32;;;;;;;65.22;39.45;;;;;;;1.06;100.00;99756.59;5065585;28;20387;-78
2023/01/15 06:28:57;;;;;;;62.65;39.67;;;;;;;1.02;100.00;99755.06;5046333;28;20104;-78
2023/01/15 06:31:25;;;;;;;57.83;38.92;;;;;;;1.10;100.00;99739.94;5064107;28;20056;-78
2023/01/15 06:33:51;;;;;;;61.33;39.35;;;;;;;1.13;100.00;99738.00;5048065;28;20033;-77
2023/01/15 06:36:22;;;;;;;59.83;39.08;;;;;;;1.13;100.00;99727.59;5063173;28;20044;-78
2023/01/15 06:38:48;;;;;;;63.13;39.40;;;;;;;1.12;100.00;99745.91;5065891;28;20032;-76
2023/01/15 06:47:19;;;;;;;55.80;38.45;;;;;;;1.11;100.00;99726.03;5061698;28;20403;-78
2023/01/15 06:49:46;;;;;;;60.47;39.60;;;;;;;1.13;100.00;99727.59;5038482;28;20066;-79
2023/01/15 06:52:12;;;;;;;57.17;38.72;;;;;;;1.13;100.00;99727.59;5067608;28;20428;-78
2023/01/15 06:54:38;;;;;;;62.28;38.67;;;;;;;1.15;100.00;99725.78;5065661;28;20040;-78
2023/01/15 06:57:03;;;;;;;63.05;39.55;;;;;;;1.16;100.00;99727.47;5063279;28;20032;-79
2023/01/15 06:59:30;;;;;;;63.92;40.53;;;;;;;1.18;100.00;99715.19;5064068;28;20116;-78
2023/01/15 07:01:55;;;;;;;55.70;38.53;;;;;;;1.20;100.00;99718.56;5064520;28;20357;-79
2023/01/15 07:04:21;;;;;;;58.45;37.22;;;;;;;1.18;100.00;99720.41;5056844;28;20036;-77
2023/01/15 07:06:47;;;;;;;65.82;39.47;;;;;;;1.14;100.00;99712.84;5064238;28;20154;-79
2023/01/15 07:09:12;;;;;;;58.50;37.70;;;;;;;1.15;100.00;99704.13;5059034;28;20090;-77
2023/01/15 07:11:48;;;;;;;59.13;39.65;;;;;;;1.15;100.00;99714.53;5058039;28;20040;-78
2023/01/15 07:14:17;;;;;;;58.60;38.42;;;;;;;1.17;100.00;99708.34;5057797;28;20433;-78
2023/01/15 07:16:43;;;;;;;59.87;40.43;;;;;;;1.23;100.00;99717.59;5060382;28;20120;-78
2023/01/15 07:19:08;;;;;;;60.92;38.20;;;;;;;1.24;100.00;99712.28;5060863;28;20163;-79
2023/01/15 07:21:34;;;;;;;59.60;37.30;;;;;;;1.28;100.00;99709.53;5062473;28;20037;-80
2023/01/15 07:24:00;;;;;;;58.25;38.05;;;;;;;1.29;100.00;99712.06;5059860;28;20041;-79
2023/01/15 07:26:26;;;;;;;56.15;37.10;;;;;;;1.30;100.00;99710.31;5061221;28;20412;-77
2023/01/15 07:28:52;;;;;;;57.47;38.00;;;;;;;1.27;100.00;99707.84;5062254;28;20079;-79
2023/01/15 07:31:18;;;;;;;57.28;38.05;;;;;;;1.28;100.00;99704.34;5059239;28;20032;-79
2023/01/15 07:33:44;;;;;;;59.03;38.40;;;;;;;1.29;100.00;99685.22;5062197;28;20021;-78
2023/01/15 07:36:10;;;;;;;57.40;38.00;;;;;;;1.29;100.00;99680.03;5058781;28;20041;-77
2023/01/15 07:38:35;;;;;;;62.03;38.70;;;;;;;1.29;100.00;99680.03;5061015;28;20057;-79
2023/01/15 07:52:00;;;;;;;63.08;38.78;;;;;;;1.26;100.00;99677.56;5059703;28;20092;-79
2023/01/15 07:54:26;;;;;;;57.83;38.00;;;;;;;1.20;100.00;99670.94;5060212;28;20147;-79
2023/01/15 07:56:52;;;;;;;61.88;39.42;;;;;;;1.13;100.00;99660.03;5063817;28;20486;-79
2023/01/15 07:59:18;;;;;;;62.70;39.90;;;;;;;1.15;100.00;99673.78;5062640;28;20093;-79
2023/01/15 08:01:44;;;;;;;59.75;38.03;;;;;;;1.18;100.00;99676.22;5065844;28;20404;-79
2023/01/15 08:04:10;;;;;;;65.45;40.85;;;;;;;1.20;100.00;99671.78;5061133;28;20042;-77
2023/01/15 08:06:36;;;;;;;59.67;38.30;;;;;;;1.21;100.00;99673.47;5066428;28;20040;-77
2023/01/15 08:09:02;;;;;;;61.63;40.40;;;;;;;1.26;100.00;99674.97;5063235;28;20059;-77
2023/01/15 08:16:56;;;;;;;58.75;38.28;;;;;;;1.33;100.00;99668.53;5060347;28;20116;-77
2023/01/15 08:19:24;;;;;;;64.85;39.70;;;;;;;1.34;100.00;99662.41;5048692;28;20159;-78
2023/01/15 08:21:50;;;;;;;69.47;41.65;;;;;;;1.27;100.00;99661.06;5045902;28;20037;-78
2023/01/15 08:24:16;;;;;;;75.72;45.83;;;;;;;1.16;100.00;99664.22;5063357;28;20028;-77
2023/01/15 08:26:42;;;;;;;81.47;48.00;;;;;;;0.99;100.00;99666.88;5071754;28;20041;-79
2023/01/15 08:29:08;;;;;;;81.70;49.15;;;;;;;0.94;100.00;99659.34;5065655;28;20041;-78
2023/01/15 08:31:34;;;;;;;86.03;51.85;;;;;;;0.88;100.00;99670.03;5048865;28;20025;-79
2023/01/15 08:33:59;;;;;;;82.70;50.90;;;;;;;0.89;100.00;99666.50;5069132;28;20037;-78
2023/01/15 08:36:25;;;;;;;76.00;47.10;;;;;;;0.95;100.00;99661.00;5067013;28;20021;-76
2023/01/15 08:38:51;;;;;;;75.28;46.90;;;;;;;1.05;100.00;99666.56;5068700;28;20089;-78
2023/01/15 08:41:16;;;;;;;71.22;42.83;;;;;;;1.11;100.00;99661.03;5069943;28;20028;-76
2023/01/15 08:43:44;;;;;;;67.53;43.20;;;;;;;1.09;100.00;99663.72;5065701;28;20032;-76
2023/01/15 08:46:10;;;;;;;65.18;41.50;;;;;;;1.10;100.00;99662.81;5053336;28;20070;-77
2023/01/15 08:48:36;;;;;;;66.85;42.25;;;;;;;1.19;100.00;99664.91;5051511;28;20120;-79
2023/01/15 08:51:06;;;;;;;67.03;42.97;;;;;;;1.28;100.00;99662.75;5050732;28;20033;-78
2023/01/15 08:53:32;;;;;;;71.22;45.00;;;;;;;1.35;100.00;99664.09;5049967;28;20028;-78
2023/01/15 08:55:58;;;;;;;71.25;45.17;;;;;;;1.40;100.00;99652.53;5051011;28;20038;-77
2023/01/15 08:58:28;;;;;;;71.88;44.38;;;;;;;1.38;100.00;99648.31;5057759;28;20090;-78
2023/01/15 09:00:54;;;;;;;66.47;42.80;;;;;;;1.35;100.00;99653.69;5064826;28;20032;-77
2023/01/15 09:03:20;;;;;;;69.97;44.10;;;;;;;1.42;100.00;99660.22;5071706;28;20351;-77
2023/01/15 09:05:46;;;;;;;74.50;46.60;;;;;;;1.49;100.00;99640.78;5056728;28;20056;-78
2023/01/15 09:08:11;;;;;;;67.70;44.75;;;;;;;1.56;100.00;99652.53;5066751;28;20033;-80
2023/01/15 09:10:37;;;;;;;70.20;43.85;;;;;;;1.59;100.00;99649.78;5061471;28;20025;-78
2023/01/15 09:13:03;;;;;;;74.03;44.25;;;;;;;1.62;100.00;99647.84;5062669;28;20079;-79
2023/01/15 09:15:30;;;;;;;71.50;44.35;;;;;;;1.73;100.00;99649.84;5061862;28;20423;-78
2023/01/15 09:17:56;;;;;;;;;;;;;;;1.84;100.00;99650.06;5049762;28;20414;-77
2023/01/15 09:20:21;;;;;;;;;;;;;;;1.94;100.00;99651.25;5060370;28;19916;-76
2023/01/15 09:22:47;;;;;;;;;;;;;;;2.02;100.00;99641.22;5056470;28;19926;-77
2023/01/15 09:25:15;;;;;;;;;;;;;;;2.15;100.00;99637.94;5053148;28;19916;-78
2023/01/15 09:27:40;;;;;;;;;;;;;;;2.30;100.00;99626.63;5052489;28;19924;-75
2023/01/15 09:30:06;;;;;;;;;;;;;;;2.43;100.00;99617.16;5054856;28;19985;-77
2023/01/15 09:32:32;;;;;;;;;;;;;;;2.56;100.00;99620.72;5061822;28;19913;-75
2023/01/15 09:34:57;;;;;;;;;;;;;;;2.67;100.00;99612.28;5057986;28;19973;-76
2023/01/15 09:37:23;;;;;;;;;;;;;;;2.77;100.00;99598.59;5061000;28;19919;-74
2023/01/15 09:39:48;;;;;;;;;;;;;;;2.88;100.00;99597.97;5063422;28;19917;-76
2023/01/15 09:42:31;;;;;;;;;;;;;;;2.94;100.00;99591.53;5046590;28;19917;-78
2023/01/15 09:45:09;;;;;;;;;;;;;;;3.03;100.00;99583.16;5051369;28;19959;-76
2023/01/15 09:47:49;;;;;;;;;;;;;;;3.13;100.00;99579.03;5038137;28;20051;-76
2023/01/15 09:50:27;;;;;;;;;;;;;;;3.22;100.00;99583.69;5062685;28;20391;-77
2023/01/15 09:53:05;;;;;;;;;;;;;;;3.26;100.00;99582.56;5057800;28;19916;-78
2023/01/15 09:55:31;;;;;;;;;;;;;;;3.33;100.00;99576.03;5050340;28;20015;-79
2023/01/15 09:57:58;;;;;;;;;;;;;;;3.40;100.00;99572.09;5064778;28;20364;-78
2023/01/15 10:00:26;;;;;;;;;;;;;;;3.44;100.00;99568.34;5064756;28;19940;-78
2023/01/15 10:02:55;;;;;;;;;;;;;;;3.49;100.00;99561.06;5062697;28;20273;-78
2023/01/15 10:05:25;;;;;;;;;;;;;;;3.52;100.00;99566.09;5063573;28;19923;-79
2023/01/15 10:07:50;;;;;;;;;;;;;;;3.57;100.00;99569.25;5039509;28;20292;-79
2023/01/15 10:10:18;;;;;;;;;;;;;;;3.62;100.00;99588.06;5047348;28;19924;-80
2023/01/15 10:12:47;;;;;;;;;;;;;;;3.56;100.00;99587.59;5060995;28;19916;-78
2023/01/15 10:15:12;;;;;;;;;;;;;;;3.58;100.00;99586.59;5064292;28;19927;-77
2023/01/15 10:17:42;;;;;;;;;;;;;;;3.60;100.00;99578.63;5065913;28;19925;-78
2023/01/15 10:20:22;;;;;;;;;;;;;;;3.61;100.00;99581.16;5045894;28;19920;-78
2023/01/15 10:23:03;;;;;;;;;;;;;;;3.59;100.00;99577.78;5059346;28;20288;-77
2023/01/15 10:25:33;;;;;;;;;;;;;;;3.60;100.00;99571.66;5059425;28;19916;-77
2023/01/15 10:28:03;;;;;;;;;;;;;;;3.55;100.00;99576.31;5065394;28;20332;-78
2023/01/15 10:30:36;;;;;;;;;;;;;;;3.51;100.00;99574.84;5064570;28;19920;-78
2023/01/15 10:33:10;;;;;;;;;;;;;;;3.59;100.00;99574.38;5070362;28;19919;-78
2023/01/15 10:35:39;;;;;;;;;;;;;;;3.64;100.00;99573.16;5043684;28;20265;-78
2023/01/15 10:38:12;;;;;;;;;;;;;;;3.71;100.00;99571.78;5060404;28;20375;-76
2023/01/15 10:40:40;;;;;;;;;;;;;;;3.80;100.00;99565.16;5059709;28;19921;-76
2023/01/15 10:43:21;;;;;;;;;;;;;;;3.81;100.00;99552.94;5038334;28;19916;-78
2023/01/15 10:45:50;;;;;;;;;;;;;;;3.87;100.00;99552.53;5056449;28;20003;-76
2023/01/15 10:48:21;;;;;;;;;;;;;;;3.96;100.00;99538.88;5056475;28;20027;-76
2023/01/15 10:50:47;;;;;;;;;;;;;;;4.06;100.00;99534.72;5059942;28;19916;-75
2023/01/15 10:53:34;;;;;;;;;;;;;;;4.06;100.00;99519.06;5062850;28;19913;-75
2023/01/15 10:56:04;;;;;;;;;;;;;;;4.13;100.00;99515.06;5063484;28;20247;-76
2023/01/15 10:58:38;;;;;;;;;;;;;;;4.22;100.00;99509.25;5068647;28;19973;-75
2023/01/15 11:01:09;;;;;;;;;;;;;;;4.22;100.00;99488.34;5066000;28;19916;-76
2023/01/15 11:03:43;;;;;;;;;;;;;;;4.25;100.00;99472.47;5063831;28;19916;-77
2023/01/15 11:06:14;;;;;;;;;;;;;;;4.34;100.00;99471.84;5062012;28;20015;-77
2023/01/15 11:08:42;;;;;;;;;;;;;;;4.41;100.00;99467.88;5064601;28;20336;-78
2023/01/15 11:11:16;;;;;;;;;;;;;;;4.43;100.00;99455.50;5062035;28;20322;-77
2023/01/15 11:19:41;;;;;;;;;;;;;;;4.69;100.00;99439.78;5066930;28;19965;-75
2023/01/15 11:22:08;;;;;;;;;;;;;;;4.78;100.00;99418.22;5051794;28;19917;-75
2023/01/15 11:24:36;;;;;;;;;;;;;;;4.89;100.00;99420.91;5073178;28;19912;-76
2023/01/15 11:27:02;;;;;;;;;;;;;;;4.98;100.00;99414.19;5067453;28;19962;-76
2023/01/15 11:29:38;;;;;;;;;;;;;;;5.06;100.00;99406.63;5070476;28;20011;-76
2023/01/15 11:32:17;;;;;;;;;;;;;;;5.14;100.00;99420.81;5069274;28;20364;-76
2023/01/15 11:34:51;;;;;;;;;;;;;;;5.21;100.00;99408.94;5070939;28;19916;-76
2023/01/15 11:37:16;;;;;;;;;;;;;;;5.30;100.00;99405.63;5069987;28;20284;-77
2023/01/15 11:39:50;;;;;;;;;;;;;;;5.42;100.00;99413.56;5076433;28;20309;-75
2023/01/15 11:50:43;;;;;;;;;;;;;;;5.86;100.00;99387.47;5044474;28;20448;-75
2023/01/15 11:53:15;;;;;;;;;;;;;;;6.00;100.00;99378.59;5055710;28;19916;-77
2023/01/15 11:55:49;;;;;;;;;;;;;;;6.13;100.00;99374.91;5024453;28;20002;-77
2023/01/15 11:58:14;;;;;;;;;;;;;;;6.28;100.00;99372.03;5027241;28;19924;-79
2023/01/15 12:00:44;;;;;;;;;;;;;;;6.40;100.00;99371.09;5047491;28;19971;-77
2023/01/15 12:03:19;;;;;;;62.85;44.25;;;;;;;6.53;100.00;99356.06;5024539;28;19991;-76
2023/01/15 12:05:55;;;;;;;70.20;45.38;;;;;;;6.68;100.00;99360.06;5038195;28;20048;-78
2023/01/15 12:08:21;;;;;;;65.93;45.33;;;;;;;6.80;100.00;99335.47;5039386;28;20043;-78
2023/01/15 12:11:03;;;;;;;66.40;47.25;;;;;;;6.87;100.00;99328.78;5044176;28;20029;-76
2023/01/15 12:13:52;;;;;;;63.03;43.47;;;;;;;6.98;100.00;99318.25;5035314;28;20036;-78
2023/01/15 12:16:33;;;;;;;59.70;42.38;;;;;;;7.02;100.00;99317.97;5040344;28;20361;-78
2023/01/15 12:19:05;;;;;;;;;;;;;;;7.10;100.00;99307.69;5044760;28;20037;-78
2023/01/15 12:21:36;;;;;;;58.60;41.05;;;;;;;7.14;100.00;99295.97;5040231;28;20304;-78
2023/01/15 12:24:26;;;;;;;59.05;43.60;;;;;;;7.16;100.00;99287.03;5041140;28;20041;-78
2023/01/15 12:27:17;;;;;;;73.55;46.35;;;;;;;7.20;100.00;99272.69;5034300;28;20455;-77
2023/01/15 12:29:48;;;;;;;72.28;48.55;;;;;;;7.19;100.00;99264.94;5039907;28;20382;-78
2023/01/15 12:32:22;;;;;;;70.40;49.58;;;;;;;7.21;100.00;99258.63;5043202;28;20041;-77
2023/01/15 12:35:01;;;;;;;;;;;;;;;7.22;100.00;99254.19;5047653;28;20036;-79
2023/01/15 12:37:33;;;;;;;;;;;;;;;7.24;100.00;99241.78;5056249;28;20323;-77
2023/01/15 12:40:14;;;;;;;;;;;;;;;7.27;100.00;99252.00;5067987;28;19920;-79
2023/01/15 12:45:32;;;;;;;;;;;;;;;7.31;100.00;99256.03;5060295;28;19951;-81
2023/01/15 12:48:18;;;;;;;;;;;;;;;7.37;100.00;99260.78;5060913;28;20352;-78
2023/01/15 12:50:48;;;;;;;;;;;;;;;7.39;100.00;99251.81;5063284;28;19924;-77
2023/01/15 12:53:18;;;;;;;;;;;;;;;7.45;100.00;99247.00;5062221;28;20320;-78
2023/01/15 12:56:03;;;;;;;;;;;;;;;7.47;100.00;99238.06;4710996;28;10000677;-78
2023/01/15 12:58:29;;;;;;;;;;;;;;;7.50;100.00;99235.16;5026067;28;20402;-79
2023/01/15 13:01:01;;;;;;;;;;;;;;;7.52;100.00;99230.59;5055530;28;19916;-78
2023/01/15 13:03:29;;;;;;;;;;;;;;;7.54;100.00;99222.59;5061180;28;19920;-77
2023/01/15 13:05:59;;;;;;;;;;;;;;;7.54;100.00;99209.47;5061127;28;19932;-76
2023/01/15 13:08:34;;;;;;;;;;;;;;;7.48;100.00;99202.13;5059751;28;19921;-78
2023/01/15 13:10:59;;;;;;;;;;;;;;;7.46;100.00;99189.13;5060543;28;19926;-78
2023/01/15 13:13:29;;;;;;;;;;;;;;;7.47;100.00;99182.91;5060149;28;19921;-77
2023/01/15 13:16:13;;;;;;;;;;;;;;;7.46;100.00;99185.66;5061520;28;20379;-78